Impacts TAF Board INFO
FOR SITUATIONAL AWARENESS. NOT TO BE USED FOR FLIGHT PLANNING PURPOSES.
IDs:

KSEA - Seattle-Tacoma Intl, WA, US

Issued at 1449 UTC 23 Apr 2017
Updated at 1555 UTC 23 Apr 2017
Potential Impact None Slight Moderate High
Time1553Z 23/16Z 23/17Z 23/18Z 23/19Z 23/20Z 23/21Z 23/22Z 23/23Z 24/00Z 24/01Z 24/02Z 24/03Z 24/04Z>>
Type OBS PRVL PRVL PRVL PRVL PRVL PRVL PRVL PRVL PRVL PRVL PRVL PRVL PRVL
VIS 10 >6 >6 >6 >6 >6 >6 >6 >6 >6 >6 >6 >6 >6
CIG 50 50 50 50 50 50 50 50 30 30 30 25 25 25
Cover OVC BKN BKN BKN OVC OVC OVC OVC OVC OVC OVC OVC OVC OVC
FltCat VFR VFR VFR VFR VFR VFR VFR VFR MVFR MVFR MVFR MVFR MVFR MVFR
WX -- -- -- -- -RA -RA -RA -RA -RA -RA -RA -RA -RA -RA
WDir 120 160 160 160 210 210 210 210 210 210 210 200 200 200
WSpd 6 5 5 5 7 7 7 7 10 10 10 10 10 10
WGst -- -- -- -- -- -- -- -- -- -- -- -- -- --

Raw TAF
KSEA 231449Z 2315/2418 16005KT P6SM BKN050
  FM231900 21007KT P6SM -RA OVC050
  FM232300 21010KT P6SM -RA BKN030 OVC050
  FM240200 20010KT P6SM -RA BKN025 OVC040
  FM240900 18006KT P6SM VCSH SCT025 BKN040 OVC060
  FM241500 04004KT P6SM BKN050 BKN100


Raw METAR
KSEA 231553Z 12006KT 10SM SCT038 BKN050 OVC200 11/07 A2990 RMK AO2 SLP131 T01060067
KSEA 231453Z 15004KT 10SM SCT030 BKN050 OVC190 09/07 A2990 RMK AO2 SLP133 T00940067 56008
KSEA 231353Z 16005KT 10SM BKN050 OVC180 08/07 A2991 RMK AO2 SLP135 T00830067
KSEA 231253Z 15005KT 10SM SCT050 BKN180 08/07 A2992 RMK AO2 SLP136 T00830067

METAR Board
Radar Display
Forecast Discussion

FOR SITUATIONAL AWARENESS. NOT TO BE USED FOR FLIGHT PLANNING PURPOSES.

Page loaded:  15:55 UTC  |   08:55 AM Pacific  |   09:55 AM Mountain  |   10:55 AM Central  |   11:55 AM Eastern

 

ADVISORIES

FORECASTS

FORECASTS

OBSERVATIONS

USER TOOLS

ABOUT US